FMMI/TNR METAR and TAF weather

Enter ICAO airport designator
Station Type Date Time Source
FMMI METAR 2022/05/26 06:00 UTC NOAA

FMMI 260600Z VRB02KT 0800 R29/P2000 FG VV003 15/15 Q1023 BECMG 2500 BR


Station Type Date Time Source
FMMI Decoded METAR 2022/05/26 06:00 UTC NOAA

Antananarivo / Ivato, Madagascar (FMMI) 18-48S 047-29E 1276M
May 26, 2022 - 02:00 AM EDT / 2022.05.26 0600 UTC
Wind: Variable at 2 MPH (2 KT):0
Visibility: less than 1 mile:0
Sky conditions: obscured
Weather: fog
Temperature: 59 F (15 C)
Dew Point: 59 F (15 C)
Relative Humidity: 100%
Pressure (altimeter): 30.21 in. Hg (1023 hPa)
ob: FMMI 260600Z VRB02KT 0800 R29/P2000 FG VV003 15/15 Q1023 BECMG 2500 BR
cycle: 6

Station Type Date Time Source
FMMI TAF 2022/05/26 18:24 UTC NOAA

TAF COR TAF COR FMMI 251700Z 2518/2624 VRB05KT 9999 FEW020 PROB40 2600/2606 0300 FG BKN003

Example: see airport list